Time;durP1;ratioP1;P1;durP2;ratioP2;P2;SDS_P1;SDS_P2;PMS_P1;PMS_P2;Temp;Humidity;BMP_temperature;BMP_pressure;BME280_temperature;BME280_humidity;BME280_pressure;Samples;Min_cycle;Max_cycle;Signal;HPM_P1;HPM_P2
2023/03/28 00:00:40;;;;;;;1.70;1.60;;;;;;;18.88;47.99;97932.63;4944886;28;20327;-89
2023/03/28 00:03:07;;;;;;;1.90;1.70;;;;;;;19.25;48.11;97989.56;4959788;28;20314;-90
2023/03/28 00:05:38;;;;;;;1.70;1.60;;;;;;;18.94;48.05;97936.34;4968018;28;20293;-91
2023/03/28 00:08:05;;;;;;;1.70;1.50;;;;;;;19.40;48.11;98009.00;4968113;28;20215;-90
2023/03/28 00:10:32;;;;;;;2.23;1.70;;;;;;;19.22;48.07;97986.88;4972247;28;20218;-89
2023/03/28 00:12:59;;;;;;;1.50;1.40;;;;;;;19.00;48.33;97951.00;4959966;28;20238;-90
2023/03/28 00:15:27;;;;;;;1.63;1.53;;;;;;;18.99;48.04;97946.72;4963858;28;20206;-89
2023/03/28 00:17:54;;;;;;;1.70;1.60;;;;;;;18.80;48.28;97908.50;4948247;28;20572;-89
2023/03/28 00:20:20;;;;;;;1.60;1.50;;;;;;;18.91;48.00;97932.75;4965107;28;20257;-90
2023/03/28 00:22:48;;;;;;;2.27;1.60;;;;;;;18.01;47.95;97777.56;4981873;28;20272;-88
2023/03/28 00:25:14;;;;;;;1.70;1.50;;;;;;;18.92;47.96;97937.06;4963077;28;20230;-89
2023/03/28 00:27:41;;;;;;;1.70;1.60;;;;;;;18.97;48.13;97953.41;4972731;28;20706;-90
2023/03/28 00:30:08;;;;;;;1.70;1.60;;;;;;;17.67;47.85;97728.44;4956943;28;20577;-89
2023/03/28 00:32:35;;;;;;;2.33;1.60;;;;;;;19.10;47.92;97984.63;4963468;28;20226;-89
2023/03/28 00:35:01;;;;;;;1.60;1.50;;;;;;;18.93;48.05;97959.19;4973005;28;20200;-89
2023/03/28 00:37:28;;;;;;;2.03;1.53;;;;;;;18.27;47.98;97843.22;4955335;28;20690;-90
2023/03/28 00:40:00;;;;;;;1.67;1.57;;;;;;;19.13;47.78;97994.09;4953107;28;20594;-89
2023/03/28 00:42:27;;;;;;;1.73;1.60;;;;;;;18.82;48.01;97945.06;4957283;28;20229;-90
2023/03/28 00:44:57;;;;;;;1.73;1.60;;;;;;;19.03;47.88;97984.28;4968597;28;20688;-90
2023/03/28 00:47:26;;;;;;;1.90;1.80;;;;;;;19.46;47.68;98060.28;4964812;28;20593;-89
2023/03/28 00:49:55;;;;;;;1.53;1.43;;;;;;;18.96;47.83;97970.41;4985758;28;20215;-90
2023/03/28 00:52:23;;;;;;;1.73;1.63;;;;;;;18.90;47.66;97966.69;4970005;28;20227;-89
2023/03/28 00:54:49;;;;;;;3.83;1.90;;;;;;;19.09;47.52;97997.28;4965891;28;20207;-89
2023/03/28 00:57:16;;;;;;;1.63;1.53;;;;;;;19.34;47.52;98051.19;4949321;28;20214;-90
2023/03/28 00:59:43;;;;;;;1.87;1.70;;;;;;;18.81;47.59;97961.16;4957784;28;20203;-90
2023/03/28 01:02:10;;;;;;;3.43;1.63;;;;;;;19.26;47.39;98038.06;4975021;28;20222;-89
2023/03/28 01:04:41;;;;;;;1.87;1.70;;;;;;;18.05;47.47;97830.28;4957230;28;20587;-90
2023/03/28 01:07:07;;;;;;;1.73;1.63;;;;;;;18.76;47.64;97949.88;4954251;28;20217;-89
2023/03/28 01:09:34;;;;;;;1.87;1.73;;;;;;;19.30;47.41;98042.50;4981994;28;20235;-89
2023/03/28 01:12:01;;;;;;;1.90;1.50;;;;;;;18.93;46.88;97988.09;4959008;28;20706;-89
2023/03/28 01:14:27;;;;;;;2.00;1.77;;;;;;;19.08;47.47;98003.19;4969824;28;20237;-90
2023/03/28 01:16:56;;;;;;;1.73;1.57;;;;;;;18.82;47.33;97961.25;4970918;28;20744;-89
2023/03/28 01:19:25;;;;;;;3.30;1.90;;;;;;;19.51;47.40;98076.63;4946254;28;20582;-89
2023/03/28 01:22:17;;;;;;;1.70;1.60;;;;;;;19.52;47.19;98078.41;4995477;28;20234;-89
2023/03/28 01:24:59;;;;;;;1.97;1.73;;;;;;;19.52;47.37;98088.59;4978186;28;20199;-89
2023/03/28 01:27:36;;;;;;;2.03;1.73;;;;;;;18.63;47.25;97934.84;4974758;28;20203;-89
2023/03/28 01:30:32;;;;;;;1.63;1.53;;;;;;;19.54;47.04;98086.97;4980501;28;20214;-89
2023/03/28 01:34:00;;;;;;;2.10;1.80;;;;;;;19.55;47.15;98091.28;4988645;28;20226;-89
2023/03/28 01:36:50;;;;;;;2.03;1.40;;;;;;;19.09;47.09;98018.56;4923926;29;20219;-90
2023/03/28 01:39:34;;;;;;;1.60;1.43;;;;;;;19.56;47.12;98108.31;4961827;28;20230;-90
2023/03/28 01:42:29;;;;;;;1.60;1.50;;;;;;;19.56;47.08;98107.44;4951471;28;20262;-90
2023/03/28 01:45:06;;;;;;;1.87;1.70;;;;;;;19.00;47.00;98009.59;4968231;28;20294;-89
2023/03/28 01:47:39;;;;;;;1.80;1.40;;;;;;;19.57;47.06;98110.06;4966974;28;20738;-89
2023/03/28 01:50:18;;;;;;;1.67;1.30;;;;;;;17.92;46.90;97820.31;4968918;28;20294;-89
2023/03/28 01:53:21;;;;;;;1.70;1.60;;;;;;;19.11;47.17;98024.59;4971711;28;20237;-89
2023/03/28 01:55:52;;;;;;;1.73;1.63;;;;;;;19.57;47.09;98111.75;4962976;28;20241;-90
2023/03/28 01:58:26;;;;;;;1.60;1.50;;;;;;;19.60;46.93;98109.34;4999906;28;20253;-90
2023/03/28 02:00:56;;;;;;;1.80;1.70;;;;;;;19.59;46.94;98120.31;4954866;28;20204;-90
2023/03/28 02:03:26;;;;;;;1.83;1.73;;;;;;;18.49;47.03;97925.69;4966964;28;20238;-89
2023/03/28 02:05:54;;;;;;;2.07;1.80;;;;;;;18.79;46.81;97970.41;4945393;28;20206;-89
2023/03/28 02:08:21;;;;;;;1.70;1.53;;;;;;;18.29;46.90;97896.72;4950370;28;20695;-89
2023/03/28 02:10:48;;;;;;;1.87;1.67;;;;;;;19.50;46.89;98097.84;4949926;28;20210;-88
2023/03/28 02:13:17;;;;;;;1.77;1.67;;;;;;;18.86;46.66;97993.69;4943245;28;20203;-89
2023/03/28 02:15:45;;;;;;;2.10;1.60;;;;;;;19.32;46.97;98060.41;4945581;28;20267;-89
2023/03/28 02:18:19;;;;;;;1.73;1.63;;;;;;;19.61;46.97;98116.19;4940321;28;20199;-90
2023/03/28 02:20:49;;;;;;;1.80;1.70;;;;;;;19.61;46.86;98118.72;4942073;28;20218;-89
2023/03/28 02:23:28;;;;;;;1.90;1.67;;;;;;;19.62;46.75;98133.22;4943387;28;20581;-89
2023/03/28 02:26:01;;;;;;;1.80;1.70;;;;;;;19.62;46.83;98123.00;4963250;28;20245;-89
2023/03/28 02:28:27;;;;;;;1.67;1.57;;;;;;;18.42;46.78;97934.72;4987403;28;20227;-90
2023/03/28 02:30:54;;;;;;;1.70;1.60;;;;;;;17.91;46.75;97835.50;4963952;28;20257;-89
2023/03/28 02:33:42;;;;;;;1.73;1.63;;;;;;;18.55;46.48;97936.16;4974968;28;20211;-89
2023/03/28 02:36:27;;;;;;;2.07;1.80;;;;;;;19.62;46.72;98121.34;4972273;28;20203;-88
2023/03/28 02:39:28;;;;;;;1.90;1.70;;;;;;;18.17;46.71;97876.66;4986233;28;20289;-89
2023/03/28 02:42:07;;;;;;;1.70;1.60;;;;;;;19.63;46.63;98129.88;4993174;28;20278;-89
2023/03/28 02:45:10;;;;;;;1.90;1.80;;;;;;;19.63;46.61;98127.34;4997787;28;20206;-89
2023/03/28 02:48:20;;;;;;;1.90;1.70;;;;;;;17.92;46.27;97833.03;4977097;28;20210;-89
2023/03/28 02:51:00;;;;;;;1.80;1.70;;;;;;;17.16;46.56;97719.94;4941885;28;20209;-89
2023/03/28 02:53:58;;;;;;;1.93;1.83;;;;;;;18.53;46.46;97943.72;4985749;28;20198;-90
2023/03/28 02:56:30;;;;;;;2.40;1.70;;;;;;;19.63;46.65;98134.97;4962275;28;20290;-90
2023/03/28 02:59:03;;;;;;;2.10;1.90;;;;;;;19.63;46.49;98133.28;4984036;28;20980;-89
2023/03/28 03:01:30;;;;;;;2.00;1.80;;;;;;;17.93;46.50;97844.09;4960632;28;20252;-89
2023/03/28 03:04:00;;;;;;;1.87;1.77;;;;;;;19.40;46.51;98094.78;4968537;28;20206;-89
2023/03/28 03:06:26;;;;;;;2.40;2.03;;;;;;;17.74;46.41;97810.94;4978387;28;20226;-88
2023/03/28 03:08:53;;;;;;;1.80;1.60;;;;;;;19.58;46.57;98131.34;4960727;28;20273;-89
2023/03/28 03:11:20;;;;;;;1.60;1.50;;;;;;;19.44;46.44;98112.84;4998782;28;20717;-89
2023/03/28 03:13:49;;;;;;;1.73;1.60;;;;;;;17.70;46.49;97814.13;4993997;28;20207;-89
2023/03/28 03:16:17;;;;;;;2.07;1.93;;;;;;;19.02;46.46;98036.03;4984859;28;20634;-90
2023/03/28 03:18:44;;;;;;;2.10;1.70;;;;;;;18.51;46.42;97947.00;4976639;28;20203;-90
2023/03/28 03:21:13;;;;;;;1.80;1.70;;;;;;;19.19;46.50;98068.28;4993616;28;20227;-88
2023/03/28 03:23:40;;;;;;;2.03;1.90;;;;;;;17.43;46.55;97756.84;4976311;28;20207;-90
2023/03/28 03:26:06;;;;;;;2.57;1.80;;;;;;;17.65;46.48;97797.78;4993367;28;20686;-89
2023/03/28 03:28:36;;;;;;;2.00;1.90;;;;;;;18.66;46.41;97975.72;4995655;28;20219;-89
2023/03/28 03:31:03;;;;;;;2.13;1.87;;;;;;;19.42;46.42;98109.34;4988774;28;20207;-88
2023/03/28 03:33:30;;;;;;;1.70;1.60;;;;;;;18.38;46.53;97945.53;4995724;28;20210;-90
2023/03/28 03:35:58;;;;;;;2.00;1.80;;;;;;;17.72;46.66;97850.66;4956161;28;20217;-89
2023/03/28 03:38:25;;;;;;;1.80;1.60;;;;;;;18.00;46.14;97864.78;4961988;28;20235;-89
2023/03/28 03:40:52;;;;;;;2.20;1.90;;;;;;;19.66;46.43;98147.88;4947215;28;20282;-86
2023/03/28 03:43:22;;;;;;;1.60;1.50;;;;;;;16.62;46.40;97641.03;4957568;28;20207;-90
2023/03/28 03:45:48;;;;;;;1.77;1.63;;;;;;;19.12;46.34;98066.22;4967188;28;20210;-89
2023/03/28 03:48:15;;;;;;;2.23;2.03;;;;;;;16.50;46.56;97612.53;4998981;28;20226;-87
2023/03/28 03:50:44;;;;;;;1.53;1.43;;;;;;;16.84;46.28;97677.72;4986969;28;20309;-90
2023/03/28 03:53:11;;;;;;;2.20;1.70;;;;;;;18.19;46.23;97904.72;4963759;28;20307;-88
2023/03/28 03:55:40;;;;;;;1.77;1.63;;;;;;;15.16;45.89;97449.22;4984693;28;20258;-89
2023/03/28 03:58:06;;;;;;;1.83;1.73;;;;;;;15.83;46.14;97562.56;4980450;28;20202;-90
2023/03/28 04:00:36;;;;;;;1.60;1.50;;;;;;;16.05;46.26;97562.88;4968167;28;20261;-90
2023/03/28 04:03:03;;;;;;;2.33;1.80;;;;;;;18.73;46.03;98024.47;4975795;28;20598;-90
2023/03/28 04:05:29;;;;;;;2.33;1.87;;;;;;;12.79;45.98;97060.56;4966824;28;20291;-90
2023/03/28 04:08:00;;;;;;;1.80;1.70;;;;;;;15.16;46.51;97431.50;4979944;28;20307;-90
2023/03/28 04:10:27;;;;;;;1.60;1.50;;;;;;;17.56;46.24;97820.22;4961823;28;20224;-89
2023/03/28 04:12:56;;;;;;;1.70;1.60;;;;;;;13.74;46.17;97192.06;4971937;28;20238;-89
2023/03/28 04:15:22;;;;;;;1.73;1.63;;;;;;;13.92;46.13;97249.44;4963644;28;20214;-90
2023/03/28 04:17:55;;;;;;;1.87;1.60;;;;;;;16.03;46.32;97551.78;4980377;28;20206;-90
2023/03/28 04:20:25;;;;;;;1.70;1.60;;;;;;;13.12;46.46;97089.34;4971058;28;20205;-89
2023/03/28 04:22:53;;;;;;;1.73;1.60;;;;;;;17.15;46.28;97746.13;4976645;28;20232;-90
2023/03/28 04:25:20;;;;;;;2.97;1.70;;;;;;;19.67;46.47;98180.22;4965025;28;20251;-90
2023/03/28 04:27:47;;;;;;;1.60;1.40;;;;;;;19.66;46.47;98184.41;4964050;28;20223;-90
2023/03/28 04:30:16;;;;;;;2.03;1.77;;;;;;;17.18;46.27;97777.66;4972092;28;20298;-88
2023/03/28 04:32:48;;;;;;;2.07;1.70;;;;;;;16.96;46.42;97718.09;4930151;28;20226;-90
2023/03/28 04:35:15;;;;;;;1.70;1.60;;;;;;;16.98;46.29;97746.94;4974444;28;20195;-89
2023/03/28 04:37:42;;;;;;;1.50;1.40;;;;;;;15.97;46.30;97584.41;4958389;28;20207;-90
2023/03/28 04:40:09;;;;;;;2.20;1.57;;;;;;;14.89;46.09;97474.75;4956498;28;20226;-90
2023/03/28 04:42:49;;;;;;;1.57;1.47;;;;;;;13.00;46.17;97073.53;4975214;28;20218;-91
2023/03/28 04:45:17;;;;;;;1.70;1.60;;;;;;;14.56;46.17;97297.63;4978728;28;20276;-89
2023/03/28 04:47:47;;;;;;;1.70;1.60;;;;;;;15.48;46.41;97545.50;4990340;28;20205;-90
2023/03/28 04:50:14;;;;;;;1.60;1.50;;;;;;;15.86;46.28;97540.78;4977339;28;20274;-89
2023/03/28 04:52:41;;;;;;;1.70;1.60;;;;;;;14.96;46.26;97416.97;4979368;28;20263;-89
2023/03/28 04:55:11;;;;;;;1.97;1.77;;;;;;;15.24;46.33;97475.81;4974114;28;20207;-90
2023/03/28 04:57:40;;;;;;;1.50;1.40;;;;;;;14.46;46.26;97361.16;4971767;28;20596;-90
2023/03/28 05:00:09;;;;;;;1.80;1.57;;;;;;;14.37;46.57;97310.09;4947438;28;20201;-90
2023/03/28 05:02:36;;;;;;;2.90;1.60;;;;;;;15.67;46.34;97525.44;4942564;28;20305;-90
2023/03/28 05:05:06;;;;;;;2.03;1.47;;;;;;;14.37;46.67;97385.94;4989437;28;20210;-90
2023/03/28 05:07:35;;;;;;;1.67;1.40;;;;;;;14.82;46.44;97361.34;4989193;28;20238;-90
2023/03/28 05:10:03;;;;;;;1.33;1.23;;;;;;;15.43;46.14;97535.94;4974966;28;20227;-90
2023/03/28 05:12:29;;;;;;;1.80;1.37;;;;;;;17.81;46.38;97879.06;4943364;28;20761;-90
2023/03/28 05:14:58;;;;;;;1.97;1.77;;;;;;;16.47;46.47;97670.72;4998648;28;20203;-89
2023/03/28 05:17:25;;;;;;;1.70;1.53;;;;;;;11.83;46.29;96937.53;4967762;28;20203;-90
2023/03/28 05:19:51;;;;;;;1.47;1.37;;;;;;;15.45;46.04;97464.31;4967333;28;20631;-90
2023/03/28 05:22:18;;;;;;;1.40;1.30;;;;;;;19.52;46.41;98189.69;4977357;28;20278;-89
2023/03/28 05:24:44;;;;;;;1.57;1.47;;;;;;;19.33;46.33;98149.69;4959442;28;20204;-91
2023/03/28 05:27:11;;;;;;;1.50;1.40;;;;;;;19.33;46.50;98175.19;4966561;28;20202;-90
2023/03/28 05:29:38;;;;;;;1.23;1.10;;;;;;;19.10;46.62;98119.66;4959340;28;20602;-91
2023/03/28 05:32:04;;;;;;;1.53;1.30;;;;;;;19.50;46.57;98189.59;4988775;28;20246;-90
2023/03/28 05:34:33;;;;;;;1.83;1.63;;;;;;;19.41;46.30;98190.84;4970535;28;20728;-91
2023/03/28 05:36:59;;;;;;;1.97;1.53;;;;;;;19.14;46.42;98144.50;4959300;28;20269;-90
2023/03/28 05:39:26;;;;;;;1.87;1.70;;;;;;;18.95;46.31;98108.72;4958488;28;20201;-91
2023/03/28 05:41:52;;;;;;;1.70;1.60;;;;;;;19.19;46.13;98150.66;4941212;28;20761;-90
2023/03/28 05:44:19;;;;;;;1.57;1.47;;;;;;;19.60;46.49;98227.47;4991081;28;20282;-90
2023/03/28 05:46:45;;;;;;;1.50;1.40;;;;;;;18.24;46.40;98005.03;4960726;28;20195;-89
2023/03/28 05:49:13;;;;;;;1.77;1.43;;;;;;;18.08;46.65;97972.88;4950090;28;20227;-87
2023/03/28 05:51:39;;;;;;;1.90;1.53;;;;;;;19.29;46.65;98177.50;4958459;28;20225;-88
2023/03/28 05:54:06;;;;;;;1.60;1.50;;;;;;;18.33;46.42;98022.41;4981518;28;20238;-90
2023/03/28 05:56:34;;;;;;;1.50;1.40;;;;;;;18.87;46.75;98119.34;4983022;28;20242;-90
2023/03/28 05:59:01;;;;;;;1.63;1.40;;;;;;;18.95;46.75;98140.97;4959234;28;20749;-90
2023/03/28 06:01:28;;;;;;;1.70;1.50;;;;;;;19.08;46.80;98178.97;4990562;28;20281;-91
2023/03/28 06:03:54;;;;;;;1.40;1.30;;;;;;;19.00;46.63;98163.31;4958753;28;20198;-91
2023/03/28 06:06:21;;;;;;;1.80;1.40;;;;;;;18.45;46.54;98062.09;4966867;28;20205;-90
2023/03/28 06:08:48;;;;;;;1.40;1.23;;;;;;;18.81;46.71;98130.13;4994174;28;20234;-90
2023/03/28 06:11:14;;;;;;;1.73;1.63;;;;;;;19.59;46.20;98271.63;4957974;28;20218;-89
2023/03/28 06:13:41;;;;;;;4.73;2.90;;;;;;;19.07;44.06;98195.06;4995862;28;20198;-89
2023/03/28 06:16:08;;;;;;;5.97;4.17;;;;;;;18.60;42.05;98107.81;4961974;28;20249;-91
2023/03/28 06:18:34;;;;;;;5.30;3.60;;;;;;;19.01;42.03;98189.69;4961775;28;20260;-90
2023/03/28 06:21:01;;;;;;;5.23;3.40;;;;;;;18.49;41.41;98098.75;4958263;28;20242;-90
2023/03/28 06:23:28;;;;;;;10.63;3.73;;;;;;;18.86;42.50;98183.81;4974721;28;20286;-90
2023/03/28 06:25:55;;;;;;;5.97;3.57;;;;;;;19.14;42.97;98227.69;4962109;28;20249;-90
2023/03/28 06:28:21;;;;;;;6.10;3.53;;;;;;;19.10;43.33;98233.44;4961824;28;20195;-90
2023/03/28 06:30:48;;;;;;;3.27;2.97;;;;;;;18.74;43.76;98171.31;4974580;28;20220;-90
2023/03/28 06:33:15;;;;;;;7.33;3.47;;;;;;;19.28;44.07;98273.50;4968111;28;20706;-90
2023/03/28 06:35:42;;;;;;;4.77;2.87;;;;;;;19.37;44.35;98296.88;4964635;28;20696;-90
2023/03/28 06:38:08;;;;;;;4.83;2.93;;;;;;;19.20;44.78;98256.91;4958700;28;20199;-90
2023/03/28 06:40:35;;;;;;;4.60;2.53;;;;;;;19.02;44.90;98244.91;4993648;28;20218;-90
2023/03/28 06:43:01;;;;;;;4.27;2.90;;;;;;;18.56;44.90;98165.31;4963644;28;20218;-90
2023/03/28 06:45:28;;;;;;;3.50;2.70;;;;;;;18.58;45.45;98162.84;4998827;28;20714;-89
2023/03/28 06:47:54;;;;;;;8.77;4.50;;;;;;;19.30;41.78;98316.91;4954396;28;20206;-89
2023/03/28 06:50:21;;;;;;;10.40;4.60;;;;;;;18.82;39.56;98236.25;4961199;28;20309;-89
2023/03/28 06:52:48;;;;;;;8.63;4.40;;;;;;;19.26;38.27;98312.38;4963434;28;20733;-91
2023/03/28 06:55:14;;;;;;;5.17;4.30;;;;;;;18.95;37.89;98253.03;4957063;28;20681;-91
2023/03/28 06:57:41;;;;;;;7.87;4.40;;;;;;;18.99;38.34;98273.66;4962047;28;20214;-91
2023/03/28 07:00:08;;;;;;;5.43;3.80;;;;;;;18.62;38.81;98229.25;4957971;28;20222;-91
2023/03/28 07:02:34;;;;;;;7.33;4.00;;;;;;;18.01;39.53;98110.69;4950435;28;20311;-91
2023/03/28 07:05:01;;;;;;;5.47;4.10;;;;;;;18.75;39.63;98251.16;4962349;28;20195;-91
2023/03/28 07:07:28;;;;;;;6.97;3.43;;;;;;;19.14;40.42;98314.31;4966823;28;20203;-92
2023/03/28 07:09:55;;;;;;;6.73;3.67;;;;;;;18.80;40.78;98260.75;4983756;28;20307;-92
2023/03/28 07:12:21;;;;;;;4.57;3.23;;;;;;;18.51;41.32;98215.13;4959916;28;20224;-91
2023/03/28 07:14:48;;;;;;;5.03;3.60;;;;;;;18.74;42.07;98259.59;4967683;28;20250;-91
2023/03/28 07:17:14;;;;;;;3.67;2.90;;;;;;;18.74;42.17;98265.53;4967625;28;20203;-91
2023/03/28 07:19:41;;;;;;;5.13;3.60;;;;;;;19.12;42.13;98329.53;5003327;28;20225;-91
2023/03/28 07:22:08;;;;;;;5.57;3.27;;;;;;;18.24;42.21;98180.56;4966481;28;20587;-92
2023/03/28 07:24:34;;;;;;;5.23;3.30;;;;;;;18.85;43.02;98289.91;4961138;28;20293;-92
2023/03/28 07:27:02;;;;;;;5.00;3.10;;;;;;;18.11;43.33;98161.25;4959568;28;20258;-90
2023/03/28 07:29:41;;;;;;;4.73;3.20;;;;;;;19.37;43.65;98375.03;4962833;28;20694;-89
2023/03/28 07:32:07;;;;;;;4.93;3.00;;;;;;;19.26;43.41;98350.63;4960814;28;20246;-90
2023/03/28 07:34:34;;;;;;;4.17;2.80;;;;;;;18.56;44.08;98234.03;4999927;28;20203;-91
2023/03/28 07:37:01;;;;;;;5.60;2.80;;;;;;;19.23;43.90;98348.78;4978948;28;20555;-90
2023/03/28 07:39:28;;;;;;;5.27;2.73;;;;;;;18.72;43.98;98269.69;4991750;28;20285;-90
2023/03/28 07:41:55;;;;;;;2.97;2.40;;;;;;;18.01;44.37;98140.31;4959225;28;20707;-91
2023/03/28 07:44:21;;;;;;;4.23;2.83;;;;;;;18.98;44.39;98317.72;4965015;28;20664;-90
2023/03/28 07:46:50;;;;;;;3.33;2.43;;;;;;;18.18;44.38;98175.16;4994438;28;20195;-90
2023/03/28 07:49:18;;;;;;;3.17;2.30;;;;;;;18.77;44.48;98293.69;4943156;28;20258;-92
2023/03/28 07:51:46;;;;;;;4.53;2.67;;;;;;;17.84;44.45;98125.84;4957629;28;20305;-90
2023/03/28 07:54:16;;;;;;;3.83;2.33;;;;;;;18.79;44.57;98296.31;4961545;28;20202;-91
2023/03/28 07:56:46;;;;;;;3.30;2.27;;;;;;;18.83;44.69;98308.44;4962024;28;20210;-90
2023/03/28 07:59:13;;;;;;;2.43;2.10;;;;;;;19.08;44.67;98364.94;4941725;28;20203;-91
2023/03/28 08:01:40;;;;;;;2.80;2.10;;;;;;;18.77;44.57;98295.41;4958330;28;20261;-91
2023/03/28 08:04:08;;;;;;;2.87;2.20;;;;;;;18.07;44.76;98182.22;4942342;28;20204;-91
2023/03/28 08:06:36;;;;;;;3.50;2.17;;;;;;;17.74;44.20;98129.56;4952000;28;20212;-91
2023/03/28 08:09:07;;;;;;;4.67;2.30;;;;;;;18.85;44.78;98306.84;4958261;28;20281;-88
2023/03/28 08:11:34;;;;;;;2.50;2.00;;;;;;;19.43;44.95;98417.00;4942884;28;20239;-91
2023/03/28 08:14:04;;;;;;;2.00;1.80;;;;;;;19.04;44.91;98355.41;4994136;28;20285;-91
2023/03/28 08:16:31;;;;;;;2.07;1.97;;;;;;;18.61;45.02;98275.00;4951045;28;20319;-90
2023/03/28 08:18:58;;;;;;;2.20;2.00;;;;;;;18.94;44.96;98327.69;4952107;28;20195;-91
2023/03/28 08:21:36;;;;;;;3.20;1.90;;;;;;;18.67;44.86;98295.69;4962463;28;20234;-91
2023/03/28 08:24:03;;;;;;;1.77;1.63;;;;;;;18.81;45.17;98308.38;4968929;28;20215;-90
2023/03/28 08:26:30;;;;;;;2.50;1.90;;;;;;;18.70;45.13;98293.31;4943107;28;20658;-90
2023/03/28 08:28:57;;;;;;;2.30;1.73;;;;;;;18.88;45.18;98335.91;4960576;28;20210;-91
2023/03/28 08:31:25;;;;;;;2.07;1.70;;;;;;;17.87;44.95;98154.84;4960298;28;20277;-90
2023/03/28 08:33:52;;;;;;;2.63;2.00;;;;;;;19.02;45.20;98368.06;4959649;28;20225;-91
2023/03/28 08:36:20;;;;;;;1.90;1.80;;;;;;;19.23;45.29;98412.50;4943763;28;20650;-91
2023/03/28 08:38:49;;;;;;;2.00;1.70;;;;;;;19.09;45.16;98371.78;4945710;28;20792;-90
2023/03/28 08:41:39;;;;;;;1.83;1.70;;;;;;;19.44;45.53;98428.06;4953650;28;20265;-90
2023/03/28 08:44:34;;;;;;;2.27;1.87;;;;;;;19.45;45.44;98442.56;4985354;28;20266;-89
2023/03/28 08:47:08;;;;;;;2.03;1.70;;;;;;;19.40;45.36;98439.78;4983596;28;20239;-91
2023/03/28 08:49:40;;;;;;;3.17;1.57;;;;;;;18.13;45.53;98210.53;4974803;28;20194;-91
2023/03/28 08:52:07;;;;;;;2.13;1.70;;;;;;;17.58;45.54;98115.94;4944301;28;20825;-91
2023/03/28 08:54:57;;;;;;;2.47;1.87;;;;;;;19.44;45.49;98439.13;4973731;28;20294;-91
2023/03/28 08:57:28;;;;;;;2.40;1.80;;;;;;;19.11;45.55;98385.50;4986614;28;20232;-91
2023/03/28 09:00:23;;;;;;;1.73;1.60;;;;;;;19.45;45.53;98447.69;4973093;28;20223;-91
2023/03/28 09:02:50;;;;;;;2.03;1.40;;;;;;;19.40;45.92;98460.19;4975441;28;20730;-92
2023/03/28 09:05:50;;;;;;;2.07;1.60;;;;;;;19.44;45.59;98443.34;4960500;28;20209;-91
2023/03/28 09:08:23;;;;;;;2.07;1.80;;;;;;;19.45;45.62;98450.22;4967725;28;20196;-90
2023/03/28 09:10:58;;;;;;;1.83;1.43;;;;;;;19.44;45.78;98448.44;4999443;28;20233;-90
2023/03/28 09:13:50;;;;;;;1.97;1.47;;;;;;;19.44;45.80;98454.44;4976593;28;20654;-91
2023/03/28 09:16:32;;;;;;;1.50;1.40;;;;;;;19.44;45.85;98456.09;4987054;28;20227;-90
2023/03/28 09:19:26;;;;;;;1.67;1.53;;;;;;;19.45;45.83;98460.41;4967604;28;20195;-90
2023/03/28 09:22:36;;;;;;;1.90;1.57;;;;;;;19.05;45.66;98377.53;4980990;28;20230;-91
2023/03/28 09:25:06;;;;;;;1.53;1.43;;;;;;;19.45;45.61;98457.88;4968788;28;20197;-91
2023/03/28 09:27:36;;;;;;;1.27;1.17;;;;;;;19.04;46.14;98383.44;4991441;28;20574;-91
2023/03/28 09:30:16;;;;;;;1.67;1.57;;;;;;;19.45;45.74;98450.22;4941646;28;20211;-90
2023/03/28 09:32:42;;;;;;;1.47;1.30;;;;;;;19.45;45.90;98479.13;4960490;28;20223;-91
2023/03/28 09:35:17;;;;;;;1.27;1.20;;;;;;;19.09;45.83;98405.81;4967468;28;20841;-91
2023/03/28 09:37:57;;;;;;;1.47;1.30;;;;;;;19.25;45.83;98428.75;4940757;28;20209;-91
2023/03/28 09:40:25;;;;;;;1.43;1.33;;;;;;;18.42;46.15;98285.03;4935084;28;20245;-91
2023/03/28 09:43:21;;;;;;;1.73;1.40;;;;;;;19.44;45.90;98454.44;4951794;28;20574;-91
2023/03/28 09:46:04;;;;;;;2.17;1.60;;;;;;;19.45;45.98;98453.63;4988650;28;20292;-92
2023/03/28 09:48:32;;;;;;;1.60;1.17;;;;;;;18.24;45.88;98246.72;4975381;28;20203;-91
2023/03/28 09:50:59;;;;;;;1.57;1.40;;;;;;;18.87;45.99;98353.66;4947018;28;20226;-91
2023/03/28 09:53:33;;;;;;;1.40;1.30;;;;;;;19.03;45.92;98386.75;4944333;28;20289;-91
2023/03/28 09:56:21;;;;;;;1.53;1.30;;;;;;;19.20;46.22;98449.69;4958520;28;20201;-90
2023/03/28 09:58:53;;;;;;;1.70;1.33;;;;;;;18.76;46.12;98344.56;4964975;28;20584;-91
2023/03/28 10:01:36;;;;;;;1.40;1.30;;;;;;;19.43;45.99;98460.34;4954804;28;20627;-91
2023/03/28 10:04:14;;;;;;;1.40;1.30;;;;;;;19.20;46.04;98412.34;4968050;28;20639;-91
2023/03/28 10:06:41;;;;;;;1.50;1.40;;;;;;;18.07;45.99;98222.03;4951524;28;20210;-91
2023/03/28 10:09:25;;;;;;;1.60;1.50;;;;;;;19.04;45.77;98403.81;4971673;28;20231;-90
2023/03/28 10:12:00;;;;;;;1.40;1.30;;;;;;;19.44;46.10;98451.88;4957456;28;20310;-90
2023/03/28 10:14:35;;;;;;;1.50;1.37;;;;;;;18.40;45.99;98282.38;4955402;28;20206;-92
2023/03/28 10:17:12;;;;;;;1.63;1.30;;;;;;;19.25;46.14;98427.88;4958756;28;20289;-90
2023/03/28 10:19:41;;;;;;;1.37;1.27;;;;;;;19.08;46.15;98396.41;4958027;28;20739;-90
2023/03/28 10:22:30;;;;;;;1.37;1.10;;;;;;;19.45;45.99;98457.88;4958758;28;20262;-91
2023/03/28 10:24:57;;;;;;;1.20;1.00;;;;;;;18.99;46.00;98384.84;4974552;28;20227;-91
2023/03/28 10:27:31;;;;;;;1.60;1.30;;;;;;;18.94;46.09;98371.88;4952105;28;20199;-91
2023/03/28 10:30:08;;;;;;;1.40;1.30;;;;;;;18.69;46.39;98325.56;4963742;28;20260;-91
2023/03/28 10:32:35;;;;;;;1.27;1.17;;;;;;;19.44;46.23;98444.25;4970878;28;20250;-90
2023/03/28 10:35:02;;;;;;;1.50;1.40;;;;;;;19.45;46.00;98445.13;4968269;28;20203;-90
2023/03/28 10:37:30;;;;;;;1.40;1.30;;;;;;;17.80;46.02;98155.28;4991455;28;20285;-91
2023/03/28 10:40:05;;;;;;;2.63;1.30;;;;;;;18.93;46.05;98359.06;4960704;28;20210;-91
2023/03/28 10:42:45;;;;;;;1.30;1.20;;;;;;;18.90;46.06;98356.34;4944451;28;20245;-92
2023/03/28 10:45:28;;;;;;;1.63;1.20;;;;;;;19.14;46.24;98400.94;4961837;28;20222;-90
2023/03/28 10:47:56;;;;;;;1.30;1.20;;;;;;;19.25;46.19;98433.84;4964560;28;20298;-88
2023/03/28 10:50:33;;;;;;;1.50;1.40;;;;;;;19.07;46.25;98388.69;4955389;28;20215;-89
2023/03/28 10:53:43;;;;;;;1.30;1.20;;;;;;;19.44;46.23;98456.97;4951595;28;20234;-90
2023/03/28 10:56:40;;;;;;;1.63;1.50;;;;;;;19.45;46.23;98452.78;4968982;28;20753;-91
2023/03/28 10:59:34;;;;;;;1.10;1.10;;;;;;;19.44;46.36;98454.44;4975139;28;20200;-89
2023/03/28 11:02:10;;;;;;;3.17;1.57;;;;;;;19.45;46.26;98447.69;4987201;28;20219;-90
2023/03/28 11:04:57;;;;;;;1.20;1.10;;;;;;;19.44;46.33;98454.44;4982269;28;20330;-90
2023/03/28 11:07:31;;;;;;;1.30;1.20;;;;;;;18.92;46.36;98365.81;4974501;28;20679;-91
2023/03/28 11:10:13;;;;;;;1.20;1.10;;;;;;;19.23;46.36;98422.69;4959715;28;20225;-91
2023/03/28 11:12:58;;;;;;;1.30;1.20;;;;;;;19.44;46.33;98441.69;4954550;28;20230;-91
2023/03/28 11:15:36;;;;;;;1.40;1.30;;;;;;;19.43;46.57;98445.03;5001709;28;20242;-91
2023/03/28 11:18:24;;;;;;;1.27;1.10;;;;;;;19.44;46.25;98443.34;4965810;28;20194;-92
2023/03/28 11:21:11;;;;;;;1.47;1.33;;;;;;;19.44;46.41;98436.59;4993594;28;20679;-91
2023/03/28 11:23:59;;;;;;;1.10;1.10;;;;;;;19.44;46.45;98435.69;4970873;28;20258;-89
2023/03/28 11:26:32;;;;;;;1.47;1.37;;;;;;;18.45;46.46;98259.72;4987500;28;20289;-90
2023/03/28 11:29:25;;;;;;;1.40;1.30;;;;;;;18.58;46.34;98277.38;4980100;28;20680;-90
2023/03/28 11:32:23;;;;;;;1.30;1.20;;;;;;;19.05;46.56;98359.69;4981429;28;20223;-90
2023/03/28 11:35:00;;;;;;;1.10;1.10;;;;;;;18.99;46.41;98365.38;4968671;28;20207;-90
2023/03/28 11:37:31;;;;;;;1.20;1.10;;;;;;;18.95;46.33;98335.41;4976953;28;20214;-91
2023/03/28 11:40:27;;;;;;;1.10;1.10;;;;;;;19.45;46.41;98420.50;4986336;28;20294;-90
2023/03/28 11:43:05;;;;;;;2.40;1.20;;;;;;;18.87;46.61;98325.63;4975597;28;20229;-90
2023/03/28 11:45:39;;;;;;;1.20;1.10;;;;;;;18.66;46.33;98277.00;4944159;28;20629;-89
2023/03/28 11:48:23;;;;;;;1.20;1.10;;;;;;;19.12;46.07;98355.00;4960375;28;20225;-90
2023/03/28 11:51:14;;;;;;;2.70;1.43;;;;;;;19.46;46.69;98401.88;4979433;28;20281;-90
2023/03/28 11:53:56;;;;;;;1.37;1.23;;;;;;;19.05;46.65;98335.13;4986079;28;20286;-90
2023/03/28 11:56:40;;;;;;;1.30;1.20;;;;;;;18.76;46.47;98286.88;4950970;28;20210;-91
2023/03/28 11:59:14;;;;;;;1.37;1.27;;;;;;;18.94;46.50;98314.94;4976794;28;20209;-91